Sandhilianwali Weather



Sandhilianwali's Current Weather

Temprature 17.78o overcast clouds

overcast clouds

Rain: 0 %

Min Temprature17.78o
Max Temprature17.78o
Humidity36
Wind Speed2.89 m/h
Sun Rise06:40:17
Sun Set18:06:56
Current Time: 27-Feb-2020 00:32:03
Lat/Lon: 30.63, 72.36




Sandhilianwali's Geo Location



Sandhilianwali's Weather Forecast

Time Overall Temp Min Temp Max Temp Humidity Wind Speed Rain
27-Feb-2020 (Thu)
02:00:00 overcast clouds 17.780 17.780 17.780 36 2.89 m/h 0 %
05:00:00 overcast clouds 16.110 16.110 16.110 41 3.27 m/h 0 %
08:00:00 few clouds 18.590 18.590 18.590 35 3.15 m/h 0 %
11:00:00 few clouds 29.460 29.460 29.460 17 2.21 m/h 0 %
14:00:00 clear sky 34.210 34.210 34.210 12 0.55 m/h 0 %
17:00:00 clear sky 32.170 32.170 32.170 13 0.36 m/h 0 %
20:00:00 clear sky 22.560 22.560 22.560 25 3.19 m/h 0 %
23:00:00 clear sky 20.040 20.040 20.040 29 3.28 m/h 0 %
28-Feb-2020 (Fri)
02:00:00 clear sky 17.360 17.360 17.360 38 3.76 m/h 0 %
05:00:00 clear sky 15.830 15.830 15.830 47 3.33 m/h 0 %
08:00:00 light rain 17.320 17.320 17.320 51 5.06 m/h 13 %
11:00:00 light rain 27.480 27.480 27.480 29 5.47 m/h 31 %
14:00:00 light rain 33.120 33.120 33.120 17 5.37 m/h 19 %
17:00:00 clear sky 32.040 32.040 32.040 16 5.15 m/h 0 %
20:00:00 few clouds 23.950 23.950 23.950 31 4.24 m/h 0 %
23:00:00 clear sky 18.470 18.470 18.470 59 6.23 m/h 0 %
29-Feb-2020 (Sat)
02:00:00 few clouds 14.430 14.430 14.430 82 4.33 m/h 0 %
05:00:00 clear sky 13.790 13.790 13.790 87 4.18 m/h 0 %
08:00:00 clear sky 15.470 15.470 15.470 81 3.56 m/h 0 %
11:00:00 clear sky 25.070 25.070 25.070 37 2.47 m/h 0 %
14:00:00 broken clouds 28.790 28.790 28.790 24 2.61 m/h 0 %
17:00:00 scattered clouds 28.030 28.030 28.030 27 6.16 m/h 0 %
20:00:00 clear sky 18.580 18.580 18.580 66 6.27 m/h 0 %
23:00:00 clear sky 14.060 14.060 14.060 79 2.8 m/h 0 %
01-Mar-2020 (Sun)
02:00:00 clear sky 12.120 12.120 12.120 89 3.25 m/h 0 %
05:00:00 clear sky 12.160 12.160 12.160 93 3.4 m/h 0 %
08:00:00 clear sky 15.030 15.030 15.030 76 3.01 m/h 0 %
11:00:00 clear sky 24.450 24.450 24.450 39 2.88 m/h 0 %
14:00:00 clear sky 29.200 29.200 29.200 25 2.24 m/h 0 %
17:00:00 clear sky 28.870 28.870 28.870 23 1.86 m/h 0 %
20:00:00 scattered clouds 21.520 21.520 21.520 39 4.05 m/h 0 %
23:00:00 scattered clouds 17.980 17.980 17.980 56 4.16 m/h 0 %
02-Mar-2020 (Mon)
02:00:00 scattered clouds 16.850 16.850 16.850 63 3.16 m/h 0 %
05:00:00 few clouds 15.640 15.640 15.640 69 2.19 m/h 0 %
08:00:00 clear sky 19.020 19.020 19.020 53 1.48 m/h 0 %
11:00:00 clear sky 28.430 28.430 28.430 29 1.85 m/h 0 %
14:00:00 clear sky 32.520 32.520 32.520 17 1.16 m/h 0 %
17:00:00 clear sky 30.420 30.420 30.420 17 1.47 m/h 0 %
20:00:00 broken clouds 21.670 21.670 21.670 34 3.72 m/h 0 %
23:00:00 scattered clouds 19.760 19.760 19.760 39 3.68 m/h 0 %

Famous Cities (61)